sensor_id;sensor_type;location;lat;lon;timestamp;pressure;altitude;pressure_sealevel;temperature;humidity
71974;BME280;59840;52.122;5.404;2024-01-15T00:01:59;100472.56;;;1.33;100.00
71974;BME280;59840;52.122;5.404;2024-01-15T00:04:26;100467.38;;;1.33;100.00
71974;BME280;59840;52.122;5.404;2024-01-15T00:06:53;100472.97;;;1.30;100.00
71974;BME280;59840;52.122;5.404;2024-01-15T00:09:19;100468.34;;;1.25;100.00
71974;BME280;59840;52.122;5.404;2024-01-15T00:11:46;100462.34;;;1.25;100.00
71974;BME280;59840;52.122;5.404;2024-01-15T00:14:13;100468.09;;;1.20;100.00
71974;BME280;59840;52.122;5.404;2024-01-15T00:16:41;100452.88;;;1.17;100.00
71974;BME280;59840;52.122;5.404;2024-01-15T00:19:08;100451.47;;;1.15;100.00
71974;BME280;59840;52.122;5.404;2024-01-15T00:21:34;100454.06;;;1.15;100.00
71974;BME280;59840;52.122;5.404;2024-01-15T00:24:01;100451.25;;;1.10;100.00
71974;BME280;59840;52.122;5.404;2024-01-15T00:26:28;100452.66;;;1.12;100.00
71974;BME280;59840;52.122;5.404;2024-01-15T00:28:54;100435.66;;;1.10;100.00
71974;BME280;59840;52.122;5.404;2024-01-15T00:31:21;100442.84;;;1.08;100.00
71974;BME280;59840;52.122;5.404;2024-01-15T00:33:48;100439.44;;;1.07;100.00
71974;BME280;59840;52.122;5.404;2024-01-15T00:36:15;100436.44;;;1.04;100.00
71974;BME280;59840;52.122;5.404;2024-01-15T00:38:46;100438.25;;;1.03;100.00
71974;BME280;59840;52.122;5.404;2024-01-15T00:41:14;100427.84;;;1.03;100.00
71974;BME280;59840;52.122;5.404;2024-01-15T00:43:41;100424.22;;;1.04;100.00
71974;BME280;59840;52.122;5.404;2024-01-15T00:46:07;100430.22;;;0.98;100.00
71974;BME280;59840;52.122;5.404;2024-01-15T00:48:34;100424.41;;;0.96;100.00
71974;BME280;59840;52.122;5.404;2024-01-15T00:51:01;100414.03;;;0.96;100.00
71974;BME280;59840;52.122;5.404;2024-01-15T00:53:28;100404.59;;;0.88;100.00
71974;BME280;59840;52.122;5.404;2024-01-15T00:55:55;100405.16;;;0.84;100.00
71974;BME280;59840;52.122;5.404;2024-01-15T00:58:22;100410.53;;;0.82;100.00
71974;BME280;59840;52.122;5.404;2024-01-15T01:00:48;100417.28;;;0.77;100.00
71974;BME280;59840;52.122;5.404;2024-01-15T01:03:15;100416.28;;;0.78;100.00
71974;BME280;59840;52.122;5.404;2024-01-15T01:05:42;100406.66;;;0.72;100.00
71974;BME280;59840;52.122;5.404;2024-01-15T01:08:10;100401.88;;;0.69;100.00
71974;BME280;59840;52.122;5.404;2024-01-15T01:10:37;100402.06;;;0.67;100.00
71974;BME280;59840;52.122;5.404;2024-01-15T01:13:03;100407.06;;;0.69;100.00
71974;BME280;59840;52.122;5.404;2024-01-15T01:15:30;100403.84;;;0.66;100.00
71974;BME280;59840;52.122;5.404;2024-01-15T01:17:57;100396.06;;;0.66;100.00
71974;BME280;59840;52.122;5.404;2024-01-15T01:20:23;100396.25;;;0.65;100.00
71974;BME280;59840;52.122;5.404;2024-01-15T01:22:50;100391.50;;;0.69;100.00
71974;BME280;59840;52.122;5.404;2024-01-15T01:25:17;100394.84;;;0.62;100.00
71974;BME280;59840;52.122;5.404;2024-01-15T01:27:43;100394.03;;;0.62;100.00
71974;BME280;59840;52.122;5.404;2024-01-15T01:30:10;100394.00;;;0.55;100.00
71974;BME280;59840;52.122;5.404;2024-01-15T01:32:37;100403.56;;;0.55;100.00
71974;BME280;59840;52.122;5.404;2024-01-15T01:35:04;100403.00;;;0.59;100.00
71974;BME280;59840;52.122;5.404;2024-01-15T01:37:30;100395.84;;;0.61;100.00
71974;BME280;59840;52.122;5.404;2024-01-15T01:39:57;100408.63;;;0.63;100.00
71974;BME280;59840;52.122;5.404;2024-01-15T01:42:23;100406.78;;;0.57;100.00
71974;BME280;59840;52.122;5.404;2024-01-15T01:44:50;100402.16;;;0.52;100.00
71974;BME280;59840;52.122;5.404;2024-01-15T01:47:17;100399.38;;;0.54;100.00
71974;BME280;59840;52.122;5.404;2024-01-15T01:49:43;100393.56;;;0.52;100.00
71974;BME280;59840;52.122;5.404;2024-01-15T01:52:10;100396.97;;;0.52;100.00
71974;BME280;59840;52.122;5.404;2024-01-15T01:54:37;100394.19;;;0.54;100.00
71974;BME280;59840;52.122;5.404;2024-01-15T01:57:07;100387.00;;;0.56;100.00
71974;BME280;59840;52.122;5.404;2024-01-15T01:59:34;100397.19;;;0.57;100.00
71974;BME280;59840;52.122;5.404;2024-01-15T02:02:03;100397.06;;;0.65;100.00
71974;BME280;59840;52.122;5.404;2024-01-15T02:04:31;100403.06;;;0.73;100.00
71974;BME280;59840;52.122;5.404;2024-01-15T02:07:00;100393.53;;;0.80;100.00
71974;BME280;59840;52.122;5.404;2024-01-15T02:09:27;100396.22;;;0.93;100.00
71974;BME280;59840;52.122;5.404;2024-01-15T02:11:53;100411.84;;;1.06;100.00
71974;BME280;59840;52.122;5.404;2024-01-15T02:14:20;100422.53;;;1.24;100.00
71974;BME280;59840;52.122;5.404;2024-01-15T02:16:48;100420.22;;;1.43;100.00
71974;BME280;59840;52.122;5.404;2024-01-15T02:19:15;100415.06;;;1.56;100.00
71974;BME280;59840;52.122;5.404;2024-01-15T02:21:44;100424.47;;;1.57;100.00
71974;BME280;59840;52.122;5.404;2024-01-15T02:24:11;100418.06;;;1.59;100.00
71974;BME280;59840;52.122;5.404;2024-01-15T02:26:38;100404.84;;;1.54;100.00
71974;BME280;59840;52.122;5.404;2024-01-15T02:29:07;100406.22;;;1.44;100.00
71974;BME280;59840;52.122;5.404;2024-01-15T02:31:36;100397.63;;;1.43;100.00
71974;BME280;59840;52.122;5.404;2024-01-15T02:34:03;100406.03;;;1.39;100.00
71974;BME280;59840;52.122;5.404;2024-01-15T02:36:30;100402.81;;;1.37;100.00
71974;BME280;59840;52.122;5.404;2024-01-15T02:38:56;100400.78;;;1.32;100.00
71974;BME280;59840;52.122;5.404;2024-01-15T02:41:23;100400.97;;;1.30;100.00
71974;BME280;59840;52.122;5.404;2024-01-15T02:43:50;100390.59;;;1.30;100.00
71974;BME280;59840;52.122;5.404;2024-01-15T02:46:16;100390.16;;;1.27;100.00
71974;BME280;59840;52.122;5.404;2024-01-15T02:48:43;100387.38;;;1.28;100.00
71974;BME280;59840;52.122;5.404;2024-01-15T02:51:10;100388.00;;;1.30;100.00
71974;BME280;59840;52.122;5.404;2024-01-15T02:53:36;100390.19;;;1.33;100.00
71974;BME280;59840;52.122;5.404;2024-01-15T02:56:04;100387.78;;;1.32;100.00
71974;BME280;59840;52.122;5.404;2024-01-15T02:58:30;100391.00;;;1.34;100.00
71974;BME280;59840;52.122;5.404;2024-01-15T03:00:58;100388.59;;;1.32;100.00
71974;BME280;59840;52.122;5.404;2024-01-15T03:03:24;100383.59;;;1.31;100.00
71974;BME280;59840;52.122;5.404;2024-01-15T03:05:51;100381.00;;;1.31;100.00
71974;BME280;59840;52.122;5.404;2024-01-15T03:08:18;100385.78;;;1.27;100.00
71974;BME280;59840;52.122;5.404;2024-01-15T03:10:45;100383.56;;;1.24;100.00
71974;BME280;59840;52.122;5.404;2024-01-15T03:13:11;100385.38;;;1.24;100.00
71974;BME280;59840;52.122;5.404;2024-01-15T03:15:39;100383.34;;;1.19;100.00
71974;BME280;59840;52.122;5.404;2024-01-15T03:18:06;100379.13;;;1.18;100.00
71974;BME280;59840;52.122;5.404;2024-01-15T03:20:32;100377.91;;;1.14;100.00
71974;BME280;59840;52.122;5.404;2024-01-15T03:22:59;100378.50;;;1.10;100.00
71974;BME280;59840;52.122;5.404;2024-01-15T03:25:26;100371.88;;;1.07;100.00
71974;BME280;59840;52.122;5.404;2024-01-15T03:27:52;100376.88;;;1.02;100.00
71974;BME280;59840;52.122;5.404;2024-01-15T03:30:19;100382.28;;;1.00;100.00
71974;BME280;59840;52.122;5.404;2024-01-15T03:32:45;100377.28;;;0.99;100.00
71974;BME280;59840;52.122;5.404;2024-01-15T03:35:13;100374.47;;;1.00;100.00
71974;BME280;59840;52.122;5.404;2024-01-15T03:37:40;100382.09;;;1.02;100.00
71974;BME280;59840;52.122;5.404;2024-01-15T03:40:07;100389.69;;;1.04;100.00
71974;BME280;59840;52.122;5.404;2024-01-15T03:42:35;100395.88;;;1.09;100.00
71974;BME280;59840;52.122;5.404;2024-01-15T03:45:01;100411.69;;;1.14;100.00
71974;BME280;59840;52.122;5.404;2024-01-15T03:47:28;100407.31;;;1.15;100.00
71974;BME280;59840;52.122;5.404;2024-01-15T03:49:54;100403.66;;;1.03;100.00
71974;BME280;59840;52.122;5.404;2024-01-15T03:52:21;100396.63;;;0.96;100.00
71974;BME280;59840;52.122;5.404;2024-01-15T03:54:48;100388.38;;;0.86;100.00
71974;BME280;59840;52.122;5.404;2024-01-15T03:57:14;100373.19;;;0.83;100.00
71974;BME280;59840;52.122;5.404;2024-01-15T03:59:41;100375.59;;;0.85;100.00
71974;BME280;59840;52.122;5.404;2024-01-15T04:02:13;100363.19;;;0.80;100.00
71974;BME280;59840;52.122;5.404;2024-01-15T04:04:41;100359.72;;;0.73;100.00
71974;BME280;59840;52.122;5.404;2024-01-15T04:07:09;100358.53;;;0.69;100.00
71974;BME280;59840;52.122;5.404;2024-01-15T04:09:36;100353.53;;;0.68;100.00
71974;BME280;59840;52.122;5.404;2024-01-15T04:12:02;100349.53;;;0.65;100.00
71974;BME280;59840;52.122;5.404;2024-01-15T04:14:29;100345.13;;;0.65;100.00
71974;BME280;59840;52.122;5.404;2024-01-15T04:16:55;100342.53;;;0.65;100.00
71974;BME280;59840;52.122;5.404;2024-01-15T04:19:22;100338.34;;;0.64;100.00
71974;BME280;59840;52.122;5.404;2024-01-15T04:21:49;100342.91;;;0.62;100.00
71974;BME280;59840;52.122;5.404;2024-01-15T04:24:15;100343.91;;;0.61;100.00
71974;BME280;59840;52.122;5.404;2024-01-15T04:26:45;100335.31;;;0.61;100.00
71974;BME280;59840;52.122;5.404;2024-01-15T04:29:11;100333.72;;;0.60;100.00
71974;BME280;59840;52.122;5.404;2024-01-15T04:31:38;100330.94;;;0.61;100.00
71974;BME280;59840;52.122;5.404;2024-01-15T04:34:05;100331.94;;;0.60;100.00
71974;BME280;59840;52.122;5.404;2024-01-15T04:36:31;100330.13;;;0.61;100.00
71974;BME280;59840;52.122;5.404;2024-01-15T04:38:58;100320.94;;;0.58;100.00
71974;BME280;59840;52.122;5.404;2024-01-15T04:41:25;100325.94;;;0.60;100.00
71974;BME280;59840;52.122;5.404;2024-01-15T04:43:51;100314.75;;;0.59;100.00
71974;BME280;59840;52.122;5.404;2024-01-15T04:46:18;100316.53;;;0.59;100.00
71974;BME280;59840;52.122;5.404;2024-01-15T04:48:46;100307.94;;;0.58;100.00
71974;BME280;59840;52.122;5.404;2024-01-15T04:51:13;100303.56;;;0.59;100.00
71974;BME280;59840;52.122;5.404;2024-01-15T04:53:39;100308.38;;;0.62;100.00
71974;BME280;59840;52.122;5.404;2024-01-15T04:56:06;100302.59;;;0.66;100.00
71974;BME280;59840;52.122;5.404;2024-01-15T04:58:32;100314.97;;;0.71;100.00
71974;BME280;59840;52.122;5.404;2024-01-15T05:00:59;100315.41;;;0.75;100.00
71974;BME280;59840;52.122;5.404;2024-01-15T05:03:26;100312.81;;;0.75;100.00
71974;BME280;59840;52.122;5.404;2024-01-15T05:05:52;100319.59;;;0.76;100.00
71974;BME280;59840;52.122;5.404;2024-01-15T05:08:19;100308.84;;;0.79;100.00
71974;BME280;59840;52.122;5.404;2024-01-15T05:10:47;100313.03;;;0.80;100.00
71974;BME280;59840;52.122;5.404;2024-01-15T05:13:13;100305.25;;;0.80;100.00
71974;BME280;59840;52.122;5.404;2024-01-15T05:15:40;100305.25;;;0.80;100.00
71974;BME280;59840;52.122;5.404;2024-01-15T05:18:07;100301.28;;;0.84;100.00
71974;BME280;59840;52.122;5.404;2024-01-15T05:20:34;100291.69;;;0.84;100.00
71974;BME280;59840;52.122;5.404;2024-01-15T05:23:01;100291.69;;;0.84;100.00
71974;BME280;59840;52.122;5.404;2024-01-15T05:25:27;100288.88;;;0.86;100.00
71974;BME280;59840;52.122;5.404;2024-01-15T05:27:54;100292.28;;;0.86;100.00
71974;BME280;59840;52.122;5.404;2024-01-15T05:30:20;100297.69;;;0.85;100.00
71974;BME280;59840;52.122;5.404;2024-01-15T05:32:47;100299.28;;;0.86;100.00
71974;BME280;59840;52.122;5.404;2024-01-15T05:35:13;100303.47;;;0.87;100.00
71974;BME280;59840;52.122;5.404;2024-01-15T05:37:43;100296.50;;;0.87;100.00
71974;BME280;59840;52.122;5.404;2024-01-15T05:40:12;100303.66;;;0.85;100.00
71974;BME280;59840;52.122;5.404;2024-01-15T05:42:39;100308.22;;;0.77;100.00
71974;BME280;59840;52.122;5.404;2024-01-15T05:45:07;100306.22;;;0.79;100.00
71974;BME280;59840;52.122;5.404;2024-01-15T05:47:34;100307.47;;;0.83;100.00
71974;BME280;59840;52.122;5.404;2024-01-15T05:50:01;100308.66;;;0.80;100.00
71974;BME280;59840;52.122;5.404;2024-01-15T05:52:28;100301.28;;;0.84;100.00
71974;BME280;59840;52.122;5.404;2024-01-15T05:54:54;100307.69;;;0.88;100.00
71974;BME280;59840;52.122;5.404;2024-01-15T05:57:21;100307.28;;;0.91;100.00
71974;BME280;59840;52.122;5.404;2024-01-15T05:59:48;100315.69;;;0.93;100.00
71974;BME280;59840;52.122;5.404;2024-01-15T06:02:14;100311.31;;;0.93;100.00
71974;BME280;59840;52.122;5.404;2024-01-15T06:04:41;100311.72;;;0.97;100.00
71974;BME280;59840;52.122;5.404;2024-01-15T06:07:07;100307.13;;;0.99;100.00
71974;BME280;59840;52.122;5.404;2024-01-15T06:09:34;100323.31;;;1.01;100.00
71974;BME280;59840;52.122;5.404;2024-01-15T06:12:01;100318.13;;;1.01;100.00
71974;BME280;59840;52.122;5.404;2024-01-15T06:14:27;100324.50;;;0.98;100.00
71974;BME280;59840;52.122;5.404;2024-01-15T06:16:54;100297.72;;;0.91;100.00
71974;BME280;59840;52.122;5.404;2024-01-15T06:19:20;100301.88;;;0.86;100.00
71974;BME280;59840;52.122;5.404;2024-01-15T06:21:47;100300.84;;;0.80;100.00
71974;BME280;59840;52.122;5.404;2024-01-15T06:24:14;100297.25;;;0.81;100.00
71974;BME280;59840;52.122;5.404;2024-01-15T06:26:41;100302.06;;;0.84;100.00
71974;BME280;59840;52.122;5.404;2024-01-15T06:29:07;100294.66;;;0.81;100.00
71974;BME280;59840;52.122;5.404;2024-01-15T06:31:34;100298.66;;;0.84;100.00
71974;BME280;59840;52.122;5.404;2024-01-15T06:34:01;100300.47;;;0.83;100.00
71974;BME280;59840;52.122;5.404;2024-01-15T06:36:28;100303.44;;;0.80;100.00
71974;BME280;59840;52.122;5.404;2024-01-15T06:38:54;100298.06;;;0.82;100.00
71974;BME280;59840;52.122;5.404;2024-01-15T06:41:22;100291.88;;;0.83;100.00
71974;BME280;59840;52.122;5.404;2024-01-15T06:43:49;100287.69;;;0.82;100.00
71974;BME280;59840;52.122;5.404;2024-01-15T06:46:22;100292.47;;;0.85;100.00
71974;BME280;59840;52.122;5.404;2024-01-15T06:48:49;100289.28;;;0.83;100.00
71974;BME280;59840;52.122;5.404;2024-01-15T06:51:16;100289.66;;;0.80;100.00
71974;BME280;59840;52.122;5.404;2024-01-15T06:53:43;100291.66;;;0.78;100.00
71974;BME280;59840;52.122;5.404;2024-01-15T06:56:09;100285.84;;;0.76;100.00
71974;BME280;59840;52.122;5.404;2024-01-15T06:58:36;100291.66;;;0.78;100.00
71974;BME280;59840;52.122;5.404;2024-01-15T07:01:03;100281.25;;;0.78;100.00
71974;BME280;59840;52.122;5.404;2024-01-15T07:03:32;100276.44;;;0.75;100.00
71974;BME280;59840;52.122;5.404;2024-01-15T07:05:59;100276.66;;;0.73;100.00
71974;BME280;59840;52.122;5.404;2024-01-15T07:08:25;100271.44;;;0.73;100.00
71974;BME280;59840;52.122;5.404;2024-01-15T07:10:52;100268.66;;;0.75;100.00
71974;BME280;59840;52.122;5.404;2024-01-15T07:13:19;100272.88;;;0.76;100.00
71974;BME280;59840;52.122;5.404;2024-01-15T07:15:45;100278.06;;;0.76;100.00
71974;BME280;59840;52.122;5.404;2024-01-15T07:18:12;100297.66;;;0.78;100.00
71974;BME280;59840;52.122;5.404;2024-01-15T07:20:39;100305.22;;;0.73;100.00
71974;BME280;59840;52.122;5.404;2024-01-15T07:23:05;100321.16;;;0.70;100.00
71974;BME280;59840;52.122;5.404;2024-01-15T07:25:33;100325.16;;;0.66;100.00
71974;BME280;59840;52.122;5.404;2024-01-15T07:28:00;100320.34;;;0.63;100.00
71974;BME280;59840;52.122;5.404;2024-01-15T07:30:26;100301.56;;;0.61;100.00
71974;BME280;59840;52.122;5.404;2024-01-15T07:32:53;100298.78;;;0.62;100.00
71974;BME280;59840;52.122;5.404;2024-01-15T07:35:20;100302.81;;;0.72;100.00
71974;BME280;59840;52.122;5.404;2024-01-15T07:37:47;100305.22;;;0.73;100.00
71974;BME280;59840;52.122;5.404;2024-01-15T07:40:13;100294.81;;;0.73;100.00
71974;BME280;59840;52.122;5.404;2024-01-15T07:42:40;100291.44;;;0.73;100.00
71974;BME280;59840;52.122;5.404;2024-01-15T07:45:10;100296.41;;;0.74;100.00
71974;BME280;59840;52.122;5.404;2024-01-15T07:47:37;100287.63;;;0.75;100.00
71974;BME280;59840;52.122;5.404;2024-01-15T07:50:03;100298.81;;;0.76;100.00
71974;BME280;59840;52.122;5.404;2024-01-15T07:52:32;100319.59;;;0.69;100.00
71974;BME280;59840;52.122;5.404;2024-01-15T07:54:58;100315.59;;;0.66;100.00
71974;BME280;59840;52.122;5.404;2024-01-15T07:57:26;100310.41;;;0.66;100.00
71974;BME280;59840;52.122;5.404;2024-01-15T07:59:53;100313.19;;;0.65;100.00
71974;BME280;59840;52.122;5.404;2024-01-15T08:02:20;100310.41;;;0.66;100.00
71974;BME280;59840;52.122;5.404;2024-01-15T08:04:48;100315.97;;;0.70;100.00
71974;BME280;59840;52.122;5.404;2024-01-15T08:07:14;100312.19;;;0.73;100.00
71974;BME280;59840;52.122;5.404;2024-01-15T08:09:41;100305.41;;;0.72;100.00
71974;BME280;59840;52.122;5.404;2024-01-15T08:12:08;100300.41;;;0.70;100.00
71974;BME280;59840;52.122;5.404;2024-01-15T08:14:36;100292.84;;;0.69;100.00
71974;BME280;59840;52.122;5.404;2024-01-15T08:17:03;100290.22;;;0.69;100.00
71974;BME280;59840;52.122;5.404;2024-01-15T08:19:29;100285.84;;;0.69;100.00
71974;BME280;59840;52.122;5.404;2024-01-15T08:21:56;100290.00;;;0.70;100.00
71974;BME280;59840;52.122;5.404;2024-01-15T08:24:23;100298.03;;;0.69;100.00
71974;BME280;59840;52.122;5.404;2024-01-15T08:26:49;100301.41;;;0.69;100.00
71974;BME280;59840;52.122;5.404;2024-01-15T08:29:16;100305.41;;;0.72;100.00
71974;BME280;59840;52.122;5.404;2024-01-15T08:31:45;100307.63;;;0.75;100.00
71974;BME280;59840;52.122;5.404;2024-01-15T08:34:12;100319.00;;;0.74;100.00
71974;BME280;59840;52.122;5.404;2024-01-15T08:36:39;100312.56;;;0.70;100.00
71974;BME280;59840;52.122;5.404;2024-01-15T08:39:07;100304.22;;;0.68;100.00
71974;BME280;59840;52.122;5.404;2024-01-15T08:41:35;100299.22;;;0.66;100.00
71974;BME280;59840;52.122;5.404;2024-01-15T08:44:02;100301.81;;;0.66;100.00
71974;BME280;59840;52.122;5.404;2024-01-15T08:46:31;100299.00;;;0.68;100.00
71974;BME280;59840;52.122;5.404;2024-01-15T08:48:58;100301.63;;;0.74;100.00
71974;BME280;59840;52.122;5.404;2024-01-15T08:51:25;100307.47;;;0.83;100.00
71974;BME280;59840;52.122;5.404;2024-01-15T08:53:51;100294.31;;;0.91;100.00
71974;BME280;59840;52.122;5.404;2024-01-15T08:56:18;100296.53;;;0.94;100.00
71974;BME280;59840;52.122;5.404;2024-01-15T08:58:44;100305.53;;;0.98;100.00
71974;BME280;59840;52.122;5.404;2024-01-15T09:01:12;100297.75;;;0.98;100.00
71974;BME280;59840;52.122;5.404;2024-01-15T09:03:40;100313.31;;;0.98;100.00
71974;BME280;59840;52.122;5.404;2024-01-15T09:06:08;100316.53;;;1.00;100.00
71974;BME280;59840;52.122;5.404;2024-01-15T09:08:36;100317.53;;;1.06;100.00
71974;BME280;59840;52.122;5.404;2024-01-15T09:11:03;100325.94;;;1.14;100.00
71974;BME280;59840;52.122;5.404;2024-01-15T09:13:30;100336.53;;;1.13;100.00
71974;BME280;59840;52.122;5.404;2024-01-15T09:15:58;100339.72;;;1.08;100.00
71974;BME280;59840;52.122;5.404;2024-01-15T09:18:24;100326.72;;;1.02;100.00
71974;BME280;59840;52.122;5.404;2024-01-15T09:20:51;100315.31;;;0.96;100.00
71974;BME280;59840;52.122;5.404;2024-01-15T09:23:18;100308.94;;;0.98;100.00
71974;BME280;59840;52.122;5.404;2024-01-15T09:25:44;100308.31;;;0.96;100.00
71974;BME280;59840;52.122;5.404;2024-01-15T09:28:11;100316.72;;;0.98;100.00
71974;BME280;59840;52.122;5.404;2024-01-15T09:30:38;100316.91;;;0.97;100.00
71974;BME280;59840;52.122;5.404;2024-01-15T09:33:04;100317.91;;;0.96;100.00
71974;BME280;59840;52.122;5.404;2024-01-15T09:35:31;100313.72;;;0.95;100.00
71974;BME280;59840;52.122;5.404;2024-01-15T09:37:58;100320.69;;;0.94;100.00
71974;BME280;59840;52.122;5.404;2024-01-15T09:40:24;100314.50;;;0.95;100.00
71974;BME280;59840;52.122;5.404;2024-01-15T09:42:54;100310.94;;;1.10;100.00
71974;BME280;59840;52.122;5.404;2024-01-15T09:45:21;100318.59;;;1.24;100.00
71974;BME280;59840;52.122;5.404;2024-01-15T09:47:48;100319.84;;;1.35;100.00
71974;BME280;59840;52.122;5.404;2024-01-15T09:50:14;100307.44;;;1.37;100.00
71974;BME280;59840;52.122;5.404;2024-01-15T09:52:43;100313.00;;;1.27;100.00
71974;BME280;59840;52.122;5.404;2024-01-15T09:55:13;100310.81;;;1.24;100.00
71974;BME280;59840;52.122;5.404;2024-01-15T09:57:39;100317.00;;;1.23;100.00
71974;BME280;59840;52.122;5.404;2024-01-15T10:00:07;100317.38;;;1.20;100.00
71974;BME280;59840;52.122;5.404;2024-01-15T10:02:37;100321.38;;;1.23;100.00
71974;BME280;59840;52.122;5.404;2024-01-15T10:05:04;100326.78;;;1.21;100.00
71974;BME280;59840;52.122;5.404;2024-01-15T10:07:34;100319.41;;;1.25;100.00
71974;BME280;59840;52.122;5.404;2024-01-15T10:10:02;100321.22;;;1.44;100.00
71974;BME280;59840;52.122;5.404;2024-01-15T10:12:30;100338.69;;;1.77;100.00
71974;BME280;59840;52.122;5.404;2024-01-15T10:14:57;100322.69;;;1.80;100.00
71974;BME280;59840;52.122;5.404;2024-01-15T10:17:24;100314.09;;;1.73;100.00
71974;BME280;59840;52.122;5.404;2024-01-15T10:19:53;100308.28;;;1.64;100.00
71974;BME280;59840;52.122;5.404;2024-01-15T10:22:20;100316.66;;;1.79;100.00
71974;BME280;59840;52.122;5.404;2024-01-15T10:24:46;100323.50;;;2.07;100.00
71974;BME280;59840;52.122;5.404;2024-01-15T10:27:15;100338.28;;;2.13;100.00
71974;BME280;59840;52.122;5.404;2024-01-15T10:29:42;100346.50;;;1.90;100.00
71974;BME280;59840;52.122;5.404;2024-01-15T10:32:09;100336.09;;;1.70;100.00
71974;BME280;59840;52.122;5.404;2024-01-15T10:34:42;100336.44;;;1.47;100.00
71974;BME280;59840;52.122;5.404;2024-01-15T10:37:10;100333.81;;;1.34;100.00
71974;BME280;59840;52.122;5.404;2024-01-15T10:39:37;100333.19;;;1.25;100.00
71974;BME280;59840;52.122;5.404;2024-01-15T10:42:05;100322.38;;;1.22;100.00
71974;BME280;59840;52.122;5.404;2024-01-15T10:44:33;100317.81;;;1.30;100.00
71974;BME280;59840;52.122;5.404;2024-01-15T10:47:01;100324.81;;;1.43;100.00
71974;BME280;59840;52.122;5.404;2024-01-15T10:49:28;100325.06;;;1.55;100.00
71974;BME280;59840;52.122;5.404;2024-01-15T10:52:00;100325.66;;;1.57;100.00
71974;BME280;59840;52.122;5.404;2024-01-15T10:54:27;100322.88;;;1.58;100.00
71974;BME280;59840;52.122;5.404;2024-01-15T10:56:56;100326.66;;;1.76;100.00
71974;BME280;59840;52.122;5.404;2024-01-15T10:59:23;100339.69;;;1.89;100.00
71974;BME280;59840;52.122;5.404;2024-01-15T11:01:51;100338.31;;;1.99;100.00
71974;BME280;59840;52.122;5.404;2024-01-15T11:04:21;100342.72;;;2.06;100.00
71974;BME280;59840;52.122;5.404;2024-01-15T11:06:51;100345.91;;;2.01;100.00
71974;BME280;59840;52.122;5.404;2024-01-15T11:09:20;100351.91;;;1.95;100.00
71974;BME280;59840;52.122;5.404;2024-01-15T11:11:47;100349.91;;;1.90;100.00
71974;BME280;59840;52.122;5.404;2024-01-15T11:14:35;100357.09;;;1.88;100.00
71974;BME280;59840;52.122;5.404;2024-01-15T11:17:02;100354.50;;;1.88;100.00
71974;BME280;59840;52.122;5.404;2024-01-15T11:19:55;100356.72;;;1.91;100.00
71974;BME280;59840;52.122;5.404;2024-01-15T11:25:23;100365.69;;;1.82;100.00
71974;BME280;59840;52.122;5.404;2024-01-15T11:27:50;100363.50;;;1.79;100.00
71974;BME280;59840;52.122;5.404;2024-01-15T11:30:19;100356.88;;;1.77;100.00
71974;BME280;59840;52.122;5.404;2024-01-15T11:32:46;100356.69;;;1.78;100.00
71974;BME280;59840;52.122;5.404;2024-01-15T11:35:13;100348.50;;;1.81;100.00
71974;BME280;59840;52.122;5.404;2024-01-15T11:40:18;100357.50;;;1.85;100.00
71974;BME280;59840;52.122;5.404;2024-01-15T11:42:45;100359.50;;;1.83;100.00
71974;BME280;59840;52.122;5.404;2024-01-15T11:45:13;100359.09;;;1.86;100.00
71974;BME280;59840;52.122;5.404;2024-01-15T11:48:08;100365.91;;;1.94;100.00
71974;BME280;59840;52.122;5.404;2024-01-15T11:50:35;100364.31;;;1.93;100.00
71974;BME280;59840;52.122;5.404;2024-01-15T11:53:16;100365.09;;;1.87;100.00
71974;BME280;59840;52.122;5.404;2024-01-15T11:55:45;100377.31;;;1.86;100.00
71974;BME280;59840;52.122;5.404;2024-01-15T11:58:12;100365.09;;;1.87;100.00
71974;BME280;59840;52.122;5.404;2024-01-15T12:00:44;100363.09;;;1.89;100.00
71974;BME280;59840;52.122;5.404;2024-01-15T12:03:11;100362.69;;;1.85;100.00
71974;BME280;59840;52.122;5.404;2024-01-15T12:05:38;100361.72;;;1.86;100.00
71974;BME280;59840;52.122;5.404;2024-01-15T12:08:05;100361.53;;;1.94;100.00
71974;BME280;59840;52.122;5.404;2024-01-15T12:10:38;100367.72;;;1.93;100.00
71974;BME280;59840;52.122;5.404;2024-01-15T12:13:11;100376.31;;;1.94;100.00
71974;BME280;59840;52.122;5.404;2024-01-15T12:15:39;100377.53;;;1.91;100.00
71974;BME280;59840;52.122;5.404;2024-01-15T12:18:12;100377.13;;;1.94;100.00
71974;BME280;59840;52.122;5.404;2024-01-15T12:20:40;100382.34;;;2.01;100.00
71974;BME280;59840;52.122;5.404;2024-01-15T12:23:07;100393.16;;;2.05;100.00
71974;BME280;59840;52.122;5.404;2024-01-15T12:25:36;100397.94;;;1.94;100.00
71974;BME280;59840;52.122;5.404;2024-01-15T12:28:03;100408.75;;;1.91;100.00
71974;BME280;59840;52.122;5.404;2024-01-15T12:30:30;100399.56;;;2.02;100.00
71974;BME280;59840;52.122;5.404;2024-01-15T12:33:08;100412.78;;;2.07;100.00
71974;BME280;59840;52.122;5.404;2024-01-15T12:35:36;100405.38;;;2.04;100.00
71974;BME280;59840;52.122;5.404;2024-01-15T12:38:03;100433.16;;;1.97;100.00
71974;BME280;59840;52.122;5.404;2024-01-15T12:40:31;100438.31;;;1.71;100.00
71974;BME280;59840;52.122;5.404;2024-01-15T12:42:59;100432.66;;;1.54;100.00
71974;BME280;59840;52.122;5.404;2024-01-15T12:45:26;100403.19;;;1.40;100.00
71974;BME280;59840;52.122;5.404;2024-01-15T12:47:53;100425.75;;;1.26;100.00
71974;BME280;59840;52.122;5.404;2024-01-15T12:50:24;100428.88;;;1.15;100.00
71974;BME280;59840;52.122;5.404;2024-01-15T12:52:50;100424.84;;;1.06;100.00
71974;BME280;59840;52.122;5.404;2024-01-15T12:55:17;100429.03;;;1.07;100.00
71974;BME280;59840;52.122;5.404;2024-01-15T12:57:44;100427.72;;;1.18;100.00